sensor_id;sensor_type;location;lat;lon;timestamp;P1;durP1;ratioP1;P2;durP2;ratioP2
14153;SDS011;7157;53.144;7.570;2023-03-01T00:00:05;6.82;;;3.67;;
14153;SDS011;7157;53.144;7.570;2023-03-01T00:10:11;9.85;;;3.92;;
14153;SDS011;7157;53.144;7.570;2023-03-01T00:20:13;6.85;;;3.80;;
14153;SDS011;7157;53.144;7.570;2023-03-01T00:30:18;7.45;;;4.30;;
14153;SDS011;7157;53.144;7.570;2023-03-01T00:40:20;11.23;;;4.47;;
14153;SDS011;7157;53.144;7.570;2023-03-01T00:50:25;9.65;;;5.43;;
14153;SDS011;7157;53.144;7.570;2023-03-01T01:00:27;9.68;;;5.18;;
14153;SDS011;7157;53.144;7.570;2023-03-01T01:10:31;11.23;;;5.47;;
14153;SDS011;7157;53.144;7.570;2023-03-01T01:20:35;11.25;;;5.90;;
14153;SDS011;7157;53.144;7.570;2023-03-01T01:30:40;9.90;;;5.80;;
14153;SDS011;7157;53.144;7.570;2023-03-01T01:40:43;11.30;;;5.90;;
14153;SDS011;7157;53.144;7.570;2023-03-01T01:50:47;8.82;;;4.95;;
14153;SDS011;7157;53.144;7.570;2023-03-01T02:00:57;8.43;;;4.57;;
14153;SDS011;7157;53.144;7.570;2023-03-01T02:11:03;13.40;;;5.32;;
14153;SDS011;7157;53.144;7.570;2023-03-01T02:21:19;12.15;;;5.57;;
14153;SDS011;7157;53.144;7.570;2023-03-01T02:31:32;8.73;;;4.82;;
14153;SDS011;7157;53.144;7.570;2023-03-01T02:41:45;15.38;;;5.30;;
14153;SDS011;7157;53.144;7.570;2023-03-01T02:51:54;9.32;;;4.95;;
14153;SDS011;7157;53.144;7.570;2023-03-01T03:02:17;7.70;;;4.50;;
14153;SDS011;7157;53.144;7.570;2023-03-01T03:12:23;7.82;;;4.50;;
14153;SDS011;7157;53.144;7.570;2023-03-01T03:22:25;9.65;;;6.05;;
14153;SDS011;7157;53.144;7.570;2023-03-01T03:32:31;7.93;;;4.90;;
14153;SDS011;7157;53.144;7.570;2023-03-01T03:42:33;12.25;;;5.45;;
14153;SDS011;7157;53.144;7.570;2023-03-01T03:52:37;7.90;;;4.68;;
14153;SDS011;7157;53.144;7.570;2023-03-01T04:02:40;8.45;;;4.70;;
14153;SDS011;7157;53.144;7.570;2023-03-01T04:12:45;9.20;;;4.57;;
14153;SDS011;7157;53.144;7.570;2023-03-01T04:22:48;9.98;;;4.90;;
14153;SDS011;7157;53.144;7.570;2023-03-01T04:32:52;5.85;;;4.00;;
14153;SDS011;7157;53.144;7.570;2023-03-01T04:42:54;9.18;;;5.68;;
14153;SDS011;7157;53.144;7.570;2023-03-01T04:52:58;87.15;;;18.75;;
14153;SDS011;7157;53.144;7.570;2023-03-01T05:03:01;125.85;;;9.88;;
14153;SDS011;7157;53.144;7.570;2023-03-01T05:13:05;98.47;;;9.00;;
14153;SDS011;7157;53.144;7.570;2023-03-01T05:23:08;172.50;;;13.65;;
14153;SDS011;7157;53.144;7.570;2023-03-01T05:33:12;57.92;;;7.72;;
14153;SDS011;7157;53.144;7.570;2023-03-01T05:43:15;158.02;;;18.85;;
14153;SDS011;7157;53.144;7.570;2023-03-01T05:53:21;110.68;;;14.02;;
14153;SDS011;7157;53.144;7.570;2023-03-01T06:03:24;145.80;;;10.73;;
14153;SDS011;7157;53.144;7.570;2023-03-01T06:13:28;145.65;;;13.00;;
14153;SDS011;7157;53.144;7.570;2023-03-01T06:23:30;60.47;;;9.75;;
14153;SDS011;7157;53.144;7.570;2023-03-01T06:33:35;120.82;;;14.13;;
14153;SDS011;7157;53.144;7.570;2023-03-01T06:43:38;41.30;;;9.50;;
14153;SDS011;7157;53.144;7.570;2023-03-01T06:53:42;140.57;;;20.88;;
14153;SDS011;7157;53.144;7.570;2023-03-01T07:03:44;40.53;;;7.35;;
14153;SDS011;7157;53.144;7.570;2023-03-01T07:13:48;35.05;;;7.78;;
14153;SDS011;7157;53.144;7.570;2023-03-01T07:23:51;32.78;;;11.82;;
14153;SDS011;7157;53.144;7.570;2023-03-01T07:33:55;15.43;;;7.40;;
14153;SDS011;7157;53.144;7.570;2023-03-01T07:43:58;29.50;;;9.80;;
14153;SDS011;7157;53.144;7.570;2023-03-01T07:54:02;37.65;;;8.82;;
14153;SDS011;7157;53.144;7.570;2023-03-01T08:04:05;19.13;;;9.35;;
14153;SDS011;7157;53.144;7.570;2023-03-01T08:14:11;21.15;;;8.73;;
14153;SDS011;7157;53.144;7.570;2023-03-01T08:24:13;19.83;;;10.02;;
14153;SDS011;7157;53.144;7.570;2023-03-01T08:34:18;23.50;;;11.55;;
14153;SDS011;7157;53.144;7.570;2023-03-01T08:44:20;21.30;;;10.98;;
14153;SDS011;7157;53.144;7.570;2023-03-01T08:54:24;21.75;;;12.07;;
14153;SDS011;7157;53.144;7.570;2023-03-01T09:04:27;22.00;;;12.55;;
14153;SDS011;7157;53.144;7.570;2023-03-01T09:14:31;23.42;;;11.82;;
14153;SDS011;7157;53.144;7.570;2023-03-01T09:24:34;21.55;;;12.13;;
14153;SDS011;7157;53.144;7.570;2023-03-01T09:34:38;18.95;;;11.38;;
14153;SDS011;7157;53.144;7.570;2023-03-01T09:44:55;28.08;;;14.52;;
14153;SDS011;7157;53.144;7.570;2023-03-01T09:55:08;29.15;;;15.15;;
14153;SDS011;7157;53.144;7.570;2023-03-01T10:05:19;28.15;;;15.98;;
14153;SDS011;7157;53.144;7.570;2023-03-01T10:15:34;27.98;;;15.15;;
14153;SDS011;7157;53.144;7.570;2023-03-01T10:25:47;24.42;;;12.73;;
14153;SDS011;7157;53.144;7.570;2023-03-01T10:35:57;23.20;;;11.05;;
14153;SDS011;7157;53.144;7.570;2023-03-01T10:46:00;25.73;;;12.30;;
14153;SDS011;7157;53.144;7.570;2023-03-01T10:56:05;15.82;;;8.57;;
14153;SDS011;7157;53.144;7.570;2023-03-01T11:06:19;18.92;;;9.55;;
14153;SDS011;7157;53.144;7.570;2023-03-01T11:16:34;14.05;;;6.78;;
14153;SDS011;7157;53.144;7.570;2023-03-01T11:26:39;11.88;;;6.53;;
14153;SDS011;7157;53.144;7.570;2023-03-01T11:36:46;10.43;;;6.60;;
14153;SDS011;7157;53.144;7.570;2023-03-01T11:47:01;11.82;;;7.88;;
14153;SDS011;7157;53.144;7.570;2023-03-01T11:57:16;12.05;;;8.88;;
14153;SDS011;7157;53.144;7.570;2023-03-01T12:07:44;12.40;;;8.95;;
14153;SDS011;7157;53.144;7.570;2023-03-01T12:28:38;13.48;;;10.00;;
14153;SDS011;7157;53.144;7.570;2023-03-01T12:38:56;11.82;;;9.77;;
14153;SDS011;7157;53.144;7.570;2023-03-01T12:49:08;15.80;;;10.20;;
14153;SDS011;7157;53.144;7.570;2023-03-01T12:59:16;14.35;;;9.77;;
14153;SDS011;7157;53.144;7.570;2023-03-01T13:09:25;13.93;;;10.30;;
14153;SDS011;7157;53.144;7.570;2023-03-01T13:19:33;16.40;;;10.55;;
14153;SDS011;7157;53.144;7.570;2023-03-01T13:29:45;16.77;;;10.60;;
14153;SDS011;7157;53.144;7.570;2023-03-01T13:39:48;18.75;;;9.95;;
14153;SDS011;7157;53.144;7.570;2023-03-01T13:49:55;14.07;;;9.52;;
14153;SDS011;7157;53.144;7.570;2023-03-01T13:59:59;16.52;;;9.77;;
14153;SDS011;7157;53.144;7.570;2023-03-01T14:10:04;18.00;;;11.30;;
14153;SDS011;7157;53.144;7.570;2023-03-01T14:20:10;18.15;;;10.98;;
14153;SDS011;7157;53.144;7.570;2023-03-01T14:30:19;18.25;;;11.23;;
14153;SDS011;7157;53.144;7.570;2023-03-01T14:40:26;16.73;;;9.90;;
14153;SDS011;7157;53.144;7.570;2023-03-01T14:50:31;14.48;;;9.43;;
14153;SDS011;7157;53.144;7.570;2023-03-01T15:00:35;16.83;;;9.95;;
14153;SDS011;7157;53.144;7.570;2023-03-01T15:10:40;16.67;;;10.25;;
14153;SDS011;7157;53.144;7.570;2023-03-01T15:20:44;16.83;;;10.52;;
14153;SDS011;7157;53.144;7.570;2023-03-01T15:30:53;19.67;;;11.73;;
14153;SDS011;7157;53.144;7.570;2023-03-01T15:41:01;21.67;;;13.15;;
14153;SDS011;7157;53.144;7.570;2023-03-01T15:51:10;20.55;;;12.02;;
14153;SDS011;7157;53.144;7.570;2023-03-01T16:01:15;21.15;;;12.73;;
14153;SDS011;7157;53.144;7.570;2023-03-01T16:11:20;20.27;;;11.77;;
14153;SDS011;7157;53.144;7.570;2023-03-01T16:21:24;21.30;;;11.60;;
14153;SDS011;7157;53.144;7.570;2023-03-01T16:31:28;20.20;;;11.10;;
14153;SDS011;7157;53.144;7.570;2023-03-01T16:41:32;21.75;;;10.48;;
14153;SDS011;7157;53.144;7.570;2023-03-01T16:51:36;22.10;;;11.15;;
14153;SDS011;7157;53.144;7.570;2023-03-01T17:01:39;29.45;;;13.95;;
14153;SDS011;7157;53.144;7.570;2023-03-01T17:11:43;28.40;;;12.15;;
14153;SDS011;7157;53.144;7.570;2023-03-01T17:21:46;18.88;;;9.63;;
14153;SDS011;7157;53.144;7.570;2023-03-01T17:31:50;19.00;;;9.45;;
14153;SDS011;7157;53.144;7.570;2023-03-01T17:41:55;18.63;;;9.85;;
14153;SDS011;7157;53.144;7.570;2023-03-01T17:51:59;16.48;;;8.88;;
14153;SDS011;7157;53.144;7.570;2023-03-01T18:02:02;16.73;;;8.43;;
14153;SDS011;7157;53.144;7.570;2023-03-01T18:12:07;16.33;;;8.68;;
14153;SDS011;7157;53.144;7.570;2023-03-01T18:22:10;24.50;;;11.35;;
14153;SDS011;7157;53.144;7.570;2023-03-01T18:32:14;24.83;;;11.70;;
14153;SDS011;7157;53.144;7.570;2023-03-01T18:42:17;28.85;;;13.27;;
14153;SDS011;7157;53.144;7.570;2023-03-01T18:52:23;26.73;;;13.45;;
14153;SDS011;7157;53.144;7.570;2023-03-01T19:02:25;25.88;;;12.38;;
14153;SDS011;7157;53.144;7.570;2023-03-01T19:12:29;21.15;;;11.35;;
14153;SDS011;7157;53.144;7.570;2023-03-01T19:22:35;19.13;;;10.13;;
14153;SDS011;7157;53.144;7.570;2023-03-01T19:32:39;22.48;;;9.32;;
14153;SDS011;7157;53.144;7.570;2023-03-01T19:42:45;19.23;;;8.70;;
14153;SDS011;7157;53.144;7.570;2023-03-01T19:52:49;16.55;;;8.23;;
14153;SDS011;7157;53.144;7.570;2023-03-01T20:02:53;15.68;;;8.10;;
14153;SDS011;7157;53.144;7.570;2023-03-01T20:12:57;17.50;;;8.50;;
14153;SDS011;7157;53.144;7.570;2023-03-01T20:23:02;16.00;;;7.82;;
14153;SDS011;7157;53.144;7.570;2023-03-01T20:33:06;17.55;;;7.85;;
14153;SDS011;7157;53.144;7.570;2023-03-01T20:43:09;15.60;;;7.65;;
14153;SDS011;7157;53.144;7.570;2023-03-01T20:53:13;16.02;;;7.47;;
14153;SDS011;7157;53.144;7.570;2023-03-01T21:03:16;16.88;;;9.10;;
14153;SDS011;7157;53.144;7.570;2023-03-01T21:13:20;19.38;;;8.90;;
14153;SDS011;7157;53.144;7.570;2023-03-01T21:23:23;15.68;;;8.55;;
14153;SDS011;7157;53.144;7.570;2023-03-01T21:33:27;21.23;;;8.48;;
14153;SDS011;7157;53.144;7.570;2023-03-01T21:43:30;19.10;;;8.80;;
14153;SDS011;7157;53.144;7.570;2023-03-01T21:53:34;18.52;;;8.93;;
14153;SDS011;7157;53.144;7.570;2023-03-01T22:03:38;16.48;;;8.15;;
14153;SDS011;7157;53.144;7.570;2023-03-01T22:13:47;15.93;;;7.88;;
14153;SDS011;7157;53.144;7.570;2023-03-01T22:23:52;14.80;;;7.93;;
14153;SDS011;7157;53.144;7.570;2023-03-01T22:33:57;15.73;;;7.55;;
14153;SDS011;7157;53.144;7.570;2023-03-01T22:44:00;14.85;;;7.55;;
14153;SDS011;7157;53.144;7.570;2023-03-01T22:54:04;17.27;;;8.68;;
14153;SDS011;7157;53.144;7.570;2023-03-01T23:04:08;16.00;;;7.63;;
14153;SDS011;7157;53.144;7.570;2023-03-01T23:14:12;12.63;;;6.63;;
14153;SDS011;7157;53.144;7.570;2023-03-01T23:24:16;13.30;;;7.32;;
14153;SDS011;7157;53.144;7.570;2023-03-01T23:34:21;17.88;;;8.13;;
14153;SDS011;7157;53.144;7.570;2023-03-01T23:44:24;16.58;;;7.88;;
14153;SDS011;7157;53.144;7.570;2023-03-01T23:54:28;20.13;;;9.02;;
